createdAt,value
2023-05-25T00:00:44.085Z,3.53
2023-05-25T00:02:24.530Z,3.50
2023-05-25T00:03:56.711Z,3.40
2023-05-25T00:05:31.115Z,3.20
2023-05-25T00:07:04.303Z,3.47
2023-05-25T00:08:37.085Z,3.42
2023-05-25T00:10:10.471Z,3.42
2023-05-25T00:11:43.331Z,4.07
2023-05-25T00:13:16.161Z,3.60
2023-05-25T00:14:49.050Z,3.47
2023-05-25T00:16:22.308Z,3.50
2023-05-25T00:17:56.013Z,3.50
2023-05-25T00:19:27.828Z,3.13
2023-05-25T00:21:05.785Z,3.72
2023-05-25T00:22:39.196Z,3.38
2023-05-25T00:24:11.258Z,3.53
2023-05-25T00:25:44.248Z,4.38
2023-05-25T00:27:17.316Z,3.60
2023-05-25T00:28:50.056Z,3.55
2023-05-25T00:30:22.943Z,3.70
2023-05-25T00:31:56.047Z,3.35
2023-05-25T00:33:28.772Z,3.85
2023-05-25T00:35:01.603Z,3.75
2023-05-25T00:36:34.716Z,3.30
2023-05-25T00:38:07.463Z,4.00
2023-05-25T00:39:40.378Z,4.07
2023-05-25T00:41:12.746Z,3.38
2023-05-25T00:42:46.092Z,3.58
2023-05-25T00:44:21.582Z,3.80
2023-05-25T00:45:55.092Z,4.38
2023-05-25T00:47:27.775Z,3.75
2023-05-25T00:49:00.580Z,3.83
2023-05-25T00:50:40.573Z,4.00
2023-05-25T00:52:16.620Z,3.88
2023-05-25T00:53:49.362Z,4.07
2023-05-25T00:55:23.034Z,4.35
2023-05-25T00:56:58.271Z,4.30
2023-05-25T00:58:33.452Z,3.67
2023-05-25T01:00:11.292Z,4.55
2023-05-25T01:01:44.756Z,4.13
2023-05-25T01:03:21.808Z,4.25
2023-05-25T01:04:55.829Z,4.40
2023-05-25T01:06:33.402Z,4.28
2023-05-25T01:08:09.963Z,4.05
2023-05-25T01:09:45.222Z,4.30
2023-05-25T01:11:19.730Z,4.13
2023-05-25T01:12:54.336Z,4.88
2023-05-25T01:14:27.852Z,4.73
2023-05-25T01:16:01.412Z,4.60
2023-05-25T01:17:38.065Z,4.50
2023-05-25T01:19:11.534Z,4.50
2023-05-25T01:20:57.138Z,4.53
2023-05-25T01:22:38.127Z,4.43
2023-05-25T01:24:17.583Z,4.53
2023-05-25T01:25:56.293Z,4.60
2023-05-25T01:27:32.818Z,4.75
2023-05-25T01:29:06.893Z,4.80
2023-05-25T01:30:42.167Z,5.00
2023-05-25T01:32:15.324Z,4.60
2023-05-25T01:33:50.541Z,4.82
2023-05-25T01:35:25.397Z,5.00
2023-05-25T01:36:58.568Z,5.22
2023-05-25T01:38:31.435Z,5.15
2023-05-25T01:40:05.638Z,5.10
2023-05-25T01:41:38.470Z,4.97
2023-05-25T01:43:11.295Z,5.25
2023-05-25T01:44:44.384Z,5.30
2023-05-25T01:46:24.183Z,5.60
2023-05-25T01:48:05.040Z,5.10
2023-05-25T01:49:44.982Z,4.95
2023-05-25T01:51:26.625Z,5.13
2023-05-25T01:53:04.715Z,4.97
2023-05-25T01:54:40.782Z,5.30
2023-05-25T01:56:15.455Z,5.32
2023-05-25T01:57:57.945Z,5.30
2023-05-25T01:59:31.286Z,5.38
2023-05-25T02:01:04.345Z,5.03
2023-05-25T02:02:38.149Z,4.95
2023-05-25T02:04:10.192Z,5.15
2023-05-25T02:05:43.678Z,5.30
2023-05-25T02:07:16.665Z,4.85
2023-05-25T02:08:49.821Z,5.50
2023-05-25T02:10:22.760Z,5.38
2023-05-25T02:11:54.676Z,5.57
2023-05-25T02:13:27.444Z,5.72
2023-05-25T02:15:00.185Z,5.60
2023-05-25T02:16:31.999Z,5.60
2023-05-25T02:18:05.763Z,6.00
2023-05-25T02:19:38.635Z,5.85
2023-05-25T02:21:11.519Z,6.07
2023-05-25T02:22:44.291Z,5.97
2023-05-25T02:24:18.423Z,5.57
2023-05-25T02:25:51.662Z,5.57
2023-05-25T02:27:24.389Z,5.53
2023-05-25T02:28:57.149Z,5.93
2023-05-25T02:30:29.944Z,6.28
2023-05-25T02:32:02.767Z,6.00
2023-05-25T02:33:34.607Z,5.97
2023-05-25T02:35:07.972Z,5.97
2023-05-25T02:36:43.434Z,5.65
2023-05-25T02:38:16.292Z,5.70
2023-05-25T02:39:49.406Z,5.72
2023-05-25T02:41:24.141Z,6.20
2023-05-25T02:42:56.951Z,6.55
2023-05-25T02:44:29.696Z,6.95
2023-05-25T02:46:02.421Z,6.28
2023-05-25T02:47:34.264Z,6.28
2023-05-25T02:49:07.025Z,6.80
2023-05-25T02:50:38.824Z,6.68
2023-05-25T02:52:11.587Z,6.88
2023-05-25T02:53:44.306Z,6.78
2023-05-25T02:55:18.956Z,6.22
2023-05-25T02:56:51.755Z,7.00
2023-05-25T02:58:23.544Z,6.88
2023-05-25T02:59:56.902Z,7.07
2023-05-25T03:01:30.805Z,7.05
2023-05-25T03:03:02.802Z,7.03
2023-05-25T03:04:37.997Z,7.15
2023-05-25T03:06:10.795Z,6.70
2023-05-25T03:07:44.053Z,6.90
2023-05-25T03:09:15.951Z,6.68
2023-05-25T03:10:50.159Z,7.07
2023-05-25T03:12:22.887Z,6.72
2023-05-25T03:13:55.664Z,6.45
2023-05-25T03:15:28.414Z,6.78
2023-05-25T03:17:01.408Z,7.13
2023-05-25T03:18:34.301Z,7.28
2023-05-25T03:20:10.451Z,6.20
2023-05-25T03:21:43.338Z,6.60
2023-05-25T03:23:16.436Z,7.63
2023-05-25T03:24:50.149Z,6.85
2023-05-25T03:26:25.781Z,6.50
2023-05-25T03:27:58.519Z,7.07
2023-05-25T03:29:31.263Z,6.57
2023-05-25T03:31:04.516Z,7.20
2023-05-25T03:32:37.446Z,6.80
2023-05-25T03:34:10.276Z,6.80
2023-05-25T03:35:42.382Z,6.75
2023-05-25T03:37:15.366Z,7.20
2023-05-25T03:38:48.158Z,7.18
2023-05-25T03:40:21.392Z,6.95
2023-05-25T03:41:56.013Z,6.93
2023-05-25T03:43:28.774Z,7.78
2023-05-25T03:45:00.574Z,6.95
2023-05-25T03:46:33.330Z,7.32
2023-05-25T03:48:06.893Z,7.97
2023-05-25T03:49:39.712Z,7.43
2023-05-25T03:51:12.471Z,7.38
2023-05-25T03:52:44.343Z,7.25
2023-05-25T03:54:17.110Z,7.78
2023-05-25T03:55:51.994Z,7.22
2023-05-25T03:57:26.126Z,8.07
2023-05-25T03:59:00.139Z,7.75
2023-05-25T04:00:32.871Z,7.75
2023-05-25T04:02:06.050Z,7.32
2023-05-25T04:03:38.977Z,7.45
2023-05-25T04:05:11.895Z,7.68
2023-05-25T04:06:45.923Z,7.97
2023-05-25T04:08:18.961Z,7.65
2023-05-25T04:09:51.722Z,7.55
2023-05-25T04:11:25.692Z,8.18
2023-05-25T04:12:59.842Z,7.68
2023-05-25T04:14:32.620Z,7.25
2023-05-25T04:16:05.705Z,8.05
2023-05-25T04:17:39.523Z,8.52
2023-05-25T04:19:12.373Z,8.20
2023-05-25T04:20:45.942Z,8.18
2023-05-25T04:22:18.750Z,8.23
2023-05-25T04:23:51.493Z,8.43
2023-05-25T04:25:24.573Z,7.88
2023-05-25T04:26:58.130Z,8.40
2023-05-25T04:28:32.293Z,7.95
2023-05-25T04:30:04.579Z,8.50
2023-05-25T04:31:39.138Z,8.07
2023-05-25T04:33:12.507Z,7.68
2023-05-25T04:34:46.741Z,8.07
2023-05-25T04:36:19.518Z,8.35
2023-05-25T04:37:54.437Z,7.47
2023-05-25T04:39:27.165Z,7.97
2023-05-25T04:41:01.946Z,8.55
2023-05-25T04:42:34.754Z,7.55
2023-05-25T04:44:10.358Z,8.80
2023-05-25T04:45:43.784Z,7.93
2023-05-25T04:47:17.085Z,8.27
2023-05-25T04:48:50.488Z,8.20
2023-05-25T04:50:23.504Z,8.30
2023-05-25T04:51:56.235Z,8.07
2023-05-25T04:53:28.980Z,7.47
2023-05-25T04:55:02.720Z,8.45
2023-05-25T04:56:35.542Z,7.72
2023-05-25T04:58:08.383Z,7.93
2023-05-25T04:59:42.446Z,7.38
2023-05-25T05:01:15.259Z,7.65
2023-05-25T05:02:48.176Z,7.40
2023-05-25T05:04:21.052Z,7.40
2023-05-25T05:05:53.992Z,7.93
2023-05-25T05:07:26.743Z,6.70
2023-05-25T05:08:59.483Z,7.40
2023-05-25T05:10:32.264Z,7.30
2023-05-25T05:12:06.289Z,7.55
2023-05-25T05:13:39.078Z,7.03
2023-05-25T05:15:13.466Z,7.05
2023-05-25T05:16:47.996Z,6.88
2023-05-25T05:18:20.993Z,6.70
2023-05-25T05:19:53.722Z,7.47
2023-05-25T05:21:26.537Z,7.53
2023-05-25T05:22:59.274Z,7.00
2023-05-25T05:24:32.037Z,7.07
2023-05-25T05:26:07.151Z,7.18
2023-05-25T05:27:39.880Z,6.93
2023-05-25T05:29:12.894Z,7.43
2023-05-25T05:30:47.419Z,7.22
2023-05-25T05:32:20.162Z,6.47
2023-05-25T05:33:52.949Z,6.75
2023-05-25T05:35:25.732Z,6.85
2023-05-25T05:37:00.077Z,6.93
2023-05-25T05:38:32.898Z,5.63
2023-05-25T05:40:06.823Z,6.28
2023-05-25T05:41:43.556Z,6.78
2023-05-25T05:43:16.357Z,6.13
2023-05-25T05:44:49.092Z,6.47
2023-05-25T05:46:23.239Z,6.45
2023-05-25T05:47:55.992Z,5.87
2023-05-25T05:49:28.827Z,5.70
2023-05-25T05:51:01.562Z,6.00
2023-05-25T05:52:34.311Z,6.67
2023-05-25T05:54:07.180Z,6.57
2023-05-25T05:55:39.966Z,6.00
2023-05-25T05:57:12.708Z,5.97
2023-05-25T05:58:45.508Z,5.77
2023-05-25T06:00:19.309Z,6.07
2023-05-25T06:01:53.435Z,5.77
2023-05-25T06:03:27.627Z,5.67
2023-05-25T06:05:01.543Z,5.30
2023-05-25T06:06:35.108Z,5.57
2023-05-25T06:08:10.058Z,5.60
2023-05-25T06:09:42.791Z,5.00
2023-05-25T06:11:15.701Z,5.30
2023-05-25T06:12:48.504Z,5.63
2023-05-25T06:14:21.244Z,4.77
2023-05-25T06:15:54.033Z,5.20
2023-05-25T06:17:29.602Z,5.20
2023-05-25T06:19:02.472Z,4.77
2023-05-25T06:20:35.497Z,5.53
2023-05-25T06:22:08.306Z,4.87
2023-05-25T06:23:41.075Z,4.90
2023-05-25T06:25:14.035Z,5.27
2023-05-25T06:26:46.793Z,4.90
2023-05-25T06:28:18.596Z,5.00
2023-05-25T06:29:51.371Z,5.07
2023-05-25T06:31:24.186Z,5.07
2023-05-25T06:32:58.492Z,4.83
2023-05-25T06:34:31.436Z,5.27
2023-05-25T06:36:04.890Z,4.63
2023-05-25T06:37:38.476Z,4.73
2023-05-25T06:39:11.207Z,4.77
2023-05-25T06:40:43.927Z,4.40
2023-05-25T06:42:16.675Z,4.67
2023-05-25T06:43:49.441Z,4.63
2023-05-25T06:45:22.740Z,4.90
2023-05-25T06:46:55.491Z,4.30
2023-05-25T06:48:29.674Z,4.30
2023-05-25T06:50:02.734Z,4.50
2023-05-25T06:51:35.581Z,4.40
2023-05-25T06:53:08.401Z,3.90
2023-05-25T06:54:41.117Z,4.20
2023-05-25T06:56:13.890Z,4.10
2023-05-25T06:57:46.650Z,4.23
2023-05-25T06:59:19.451Z,4.47
2023-05-25T07:00:52.254Z,4.47
2023-05-25T07:02:25.059Z,4.10
2023-05-25T07:03:59.166Z,4.80
2023-05-25T07:05:31.963Z,4.40
2023-05-25T07:07:04.876Z,4.20
2023-05-25T07:08:37.608Z,4.87
2023-05-25T07:10:10.903Z,4.67
2023-05-25T07:11:43.677Z,4.03
2023-05-25T07:13:16.432Z,4.00
2023-05-25T07:14:49.216Z,4.70
2023-05-25T07:16:21.996Z,4.13
2023-05-25T07:17:57.178Z,4.37
2023-05-25T07:19:31.397Z,3.87
2023-05-25T07:21:04.350Z,3.90
2023-05-25T07:22:37.179Z,4.30
2023-05-25T07:24:10.003Z,4.37
2023-05-25T07:25:43.130Z,4.53
2023-05-25T07:27:16.326Z,3.97
2023-05-25T07:28:49.108Z,4.30
2023-05-25T07:30:22.083Z,4.33
2023-05-25T07:31:54.914Z,4.17
2023-05-25T07:33:27.694Z,3.93
2023-05-25T07:35:02.121Z,4.27
2023-05-25T07:36:34.859Z,4.30
2023-05-25T07:38:07.620Z,4.03
2023-05-25T07:39:41.002Z,4.40
2023-05-25T07:41:13.840Z,4.40
2023-05-25T07:42:46.641Z,4.23
2023-05-25T07:44:19.527Z,4.17
2023-05-25T07:45:52.317Z,4.23
2023-05-25T07:47:25.103Z,3.97
2023-05-25T07:48:59.606Z,4.00
2023-05-25T07:50:33.768Z,4.30
2023-05-25T07:52:06.563Z,4.20
2023-05-25T07:53:39.605Z,4.43
2023-05-25T07:55:12.478Z,4.00
2023-05-25T07:56:45.253Z,4.20
2023-05-25T07:58:18.041Z,4.33
2023-05-25T07:59:50.796Z,4.20
2023-05-25T08:01:26.790Z,4.10
2023-05-25T08:03:00.122Z,4.30
2023-05-25T08:04:33.746Z,4.00
2023-05-25T08:06:08.165Z,3.93
2023-05-25T08:07:42.945Z,4.30
2023-05-25T08:09:14.918Z,4.03
2023-05-25T08:10:47.657Z,4.20
2023-05-25T08:13:56.142Z,4.20
2023-05-25T08:15:28.902Z,4.30
2023-05-25T08:17:02.613Z,4.30
2023-05-25T08:18:35.803Z,4.23
2023-05-25T08:20:10.225Z,4.50
2023-05-25T08:21:44.429Z,4.20
2023-05-25T08:23:17.894Z,4.10
2023-05-25T08:24:50.821Z,4.07
2023-05-25T08:26:38.375Z,4.33
2023-05-25T08:28:16.578Z,3.87
2023-05-25T08:29:49.315Z,4.13
2023-05-25T08:31:22.144Z,3.87
2023-05-25T08:32:54.947Z,4.10
2023-05-25T08:34:29.081Z,3.87
2023-05-25T08:36:01.813Z,3.63
2023-05-25T08:37:35.968Z,4.60
2023-05-25T08:39:09.232Z,4.00
2023-05-25T08:40:43.491Z,3.43
2023-05-25T08:42:16.290Z,3.50
2023-05-25T08:43:49.193Z,4.43
2023-05-25T08:45:34.104Z,3.90
2023-05-25T08:47:08.657Z,3.83
2023-05-25T08:48:42.869Z,4.47
2023-05-25T08:50:18.408Z,4.23
2023-05-25T08:51:52.122Z,3.87
2023-05-25T08:53:27.565Z,3.83
2023-05-25T08:55:04.652Z,3.70
2023-05-25T08:56:42.220Z,3.50
2023-05-25T08:58:18.320Z,3.70
2023-05-25T08:59:58.233Z,4.07
2023-05-25T09:01:39.068Z,4.20
2023-05-25T09:03:17.724Z,4.13
2023-05-25T09:04:50.669Z,3.70
2023-05-25T09:06:24.979Z,4.10
2023-05-25T09:07:58.091Z,3.73
2023-05-25T09:09:32.365Z,3.77
2023-05-25T09:11:06.317Z,4.37
2023-05-25T09:12:39.670Z,3.60
2023-05-25T09:14:12.511Z,3.60
2023-05-25T09:15:45.503Z,3.63
2023-05-25T09:17:19.922Z,3.70
2023-05-25T09:18:52.800Z,3.40
2023-05-25T09:20:31.332Z,3.60
2023-05-25T09:22:14.917Z,3.70
2023-05-25T09:23:50.936Z,3.20
2023-05-25T09:25:26.268Z,3.73
2023-05-25T09:26:59.204Z,3.77
2023-05-25T09:28:31.925Z,3.93
2023-05-25T09:30:05.972Z,3.57
2023-05-25T09:31:39.453Z,4.07
2023-05-25T09:33:12.760Z,3.70
2023-05-25T09:34:46.054Z,3.57
2023-05-25T09:36:21.878Z,4.00
2023-05-25T09:37:55.911Z,4.07
2023-05-25T09:39:29.529Z,3.50
2023-05-25T09:41:04.620Z,3.57
2023-05-25T09:42:37.867Z,3.93
2023-05-25T09:44:12.117Z,3.90
2023-05-25T09:45:45.506Z,3.70
2023-05-25T09:47:18.405Z,3.97
2023-05-25T09:48:53.446Z,3.40
2023-05-25T09:50:29.167Z,3.37
2023-05-25T09:52:02.345Z,4.03
2023-05-25T09:53:35.474Z,3.53
2023-05-25T09:55:12.607Z,3.70
2023-05-25T09:56:46.803Z,3.57
2023-05-25T09:58:19.629Z,3.80
2023-05-25T09:59:53.226Z,4.17
2023-05-25T10:01:27.182Z,3.50
2023-05-25T10:03:01.051Z,3.63
2023-05-25T10:04:33.898Z,3.50
2023-05-25T10:06:07.502Z,4.03
2023-05-25T10:07:41.748Z,3.83
2023-05-25T10:09:16.583Z,3.90
2023-05-25T10:10:50.781Z,3.73
2023-05-25T10:12:25.918Z,4.03
2023-05-25T10:14:03.733Z,3.57
2023-05-25T10:15:38.448Z,3.73
2023-05-25T10:17:12.665Z,3.37
2023-05-25T10:18:49.537Z,3.90
2023-05-25T10:20:24.493Z,3.60
2023-05-25T10:22:05.457Z,3.73
2023-05-25T10:23:45.018Z,3.53
2023-05-25T10:25:22.004Z,3.27
2023-05-25T10:26:58.258Z,3.53
2023-05-25T10:28:37.663Z,3.00
2023-05-25T10:30:11.355Z,3.90
2023-05-25T10:31:44.578Z,3.70
2023-05-25T10:33:17.948Z,3.47
2023-05-25T10:34:53.246Z,3.63
2023-05-25T10:36:26.978Z,3.90
2023-05-25T10:38:00.743Z,3.60
2023-05-25T10:39:34.901Z,3.30
2023-05-25T10:41:09.833Z,4.00
2023-05-25T10:42:42.786Z,3.20
2023-05-25T10:44:17.582Z,4.17
2023-05-25T10:45:50.849Z,3.70
2023-05-25T10:47:24.135Z,3.47
2023-05-25T10:49:11.773Z,3.80
2023-05-25T10:50:51.696Z,3.70
2023-05-25T10:52:28.935Z,4.00
2023-05-25T10:54:02.540Z,3.87
2023-05-25T10:55:43.730Z,4.30
2023-05-25T10:57:20.443Z,4.10
2023-05-25T10:58:54.213Z,3.70
2023-05-25T11:00:32.544Z,3.50
2023-05-25T11:02:09.218Z,3.73
2023-05-25T11:03:58.780Z,4.00
2023-05-25T11:05:34.121Z,3.80
2023-05-25T11:07:13.373Z,4.10
2023-05-25T11:08:50.964Z,3.50
2023-05-25T11:10:54.068Z,4.03
2023-05-25T11:12:27.854Z,3.67
2023-05-25T11:14:03.432Z,3.17
2023-05-25T11:15:39.449Z,3.93
2023-05-25T11:17:14.437Z,3.97
2023-05-25T11:18:52.860Z,4.10
2023-05-25T11:20:28.952Z,4.27
2023-05-25T11:22:14.315Z,3.73
2023-05-25T11:23:57.989Z,3.73
2023-05-25T11:25:38.338Z,3.80
2023-05-25T11:27:11.270Z,3.97
2023-05-25T11:28:47.715Z,3.30
2023-05-25T11:30:20.824Z,3.37
2023-05-25T11:31:56.454Z,3.60
2023-05-25T11:33:29.316Z,4.00
2023-05-25T11:35:02.104Z,4.00
2023-05-25T11:36:37.210Z,4.03
2023-05-25T11:38:10.042Z,3.67
2023-05-25T11:39:44.477Z,4.10
2023-05-25T11:41:18.529Z,3.90
2023-05-25T11:42:53.227Z,3.63
2023-05-25T11:44:31.188Z,3.67
2023-05-25T11:46:09.565Z,3.33
2023-05-25T11:47:43.778Z,3.20
2023-05-25T11:49:16.544Z,2.93
2023-05-25T11:50:49.433Z,3.50
2023-05-25T11:52:23.048Z,3.53
2023-05-25T11:53:55.926Z,3.77
2023-05-25T11:55:28.930Z,3.30
2023-05-25T11:57:02.948Z,3.63
2023-05-25T11:58:36.102Z,3.57
2023-05-25T12:00:11.344Z,3.40
2023-05-25T12:01:44.169Z,4.10
2023-05-25T12:03:32.454Z,4.07
2023-05-25T12:05:08.449Z,3.40
2023-05-25T12:06:42.186Z,3.77
2023-05-25T12:08:15.002Z,3.77
2023-05-25T12:09:47.807Z,4.03
2023-05-25T12:11:27.869Z,3.67
2023-05-25T12:13:04.503Z,3.37
2023-05-25T12:14:47.918Z,3.40
2023-05-25T12:16:21.081Z,3.43
2023-05-25T12:17:54.766Z,4.07
2023-05-25T12:19:29.088Z,3.57
2023-05-25T12:21:02.101Z,3.63
2023-05-25T12:22:35.271Z,3.40
2023-05-25T12:24:09.001Z,3.60
2023-05-25T12:25:50.219Z,3.80
2023-05-25T12:27:23.982Z,3.80
2023-05-25T12:29:01.024Z,3.90
2023-05-25T12:30:33.891Z,3.57
2023-05-25T12:32:06.947Z,4.03
2023-05-25T12:33:40.847Z,3.80
2023-05-25T12:35:14.998Z,3.73
2023-05-25T12:36:50.623Z,3.57
2023-05-25T12:38:23.594Z,3.47
2023-05-25T12:40:00.062Z,3.90
2023-05-25T12:41:33.171Z,4.07
2023-05-25T12:43:06.099Z,3.70
2023-05-25T12:44:39.091Z,4.10
2023-05-25T12:46:12.318Z,4.93
2023-05-25T12:47:46.973Z,3.70
2023-05-25T12:49:30.992Z,3.83
2023-05-25T12:51:05.651Z,3.43
2023-05-25T12:52:39.692Z,3.37
2023-05-25T12:54:12.455Z,3.87
2023-05-25T12:55:45.497Z,3.70
2023-05-25T12:57:18.854Z,3.73
2023-05-25T12:58:51.650Z,3.40
2023-05-25T13:00:25.584Z,3.83
2023-05-25T13:01:58.458Z,3.90
2023-05-25T13:03:32.193Z,4.00
2023-05-25T13:05:05.340Z,3.43
2023-05-25T13:06:39.437Z,3.43
2023-05-25T13:08:12.165Z,3.57
2023-05-25T13:09:44.949Z,3.70
2023-05-25T13:11:17.780Z,3.70
2023-05-25T13:12:51.974Z,4.83
2023-05-25T13:14:25.755Z,3.47
2023-05-25T13:15:59.085Z,3.50
2023-05-25T13:17:31.938Z,3.70
2023-05-25T13:19:04.716Z,3.57
2023-05-25T13:20:38.253Z,3.63
2023-05-25T13:22:12.444Z,3.73
2023-05-25T13:23:45.336Z,4.00
2023-05-25T13:25:18.503Z,3.77
2023-05-25T13:26:51.620Z,3.60
2023-05-25T13:28:24.391Z,3.70
2023-05-25T13:29:58.766Z,3.80
2023-05-25T13:31:31.565Z,3.63
2023-05-25T13:33:04.470Z,4.10
2023-05-25T13:34:37.220Z,4.03
2023-05-25T13:36:09.999Z,3.90
2023-05-25T13:37:44.087Z,4.10
2023-05-25T13:39:17.005Z,3.90
2023-05-25T13:40:49.767Z,4.37
2023-05-25T13:42:22.857Z,3.77
2023-05-25T13:43:55.729Z,3.80
2023-05-25T13:45:28.495Z,3.97
2023-05-25T13:47:01.247Z,4.00
2023-05-25T13:48:34.098Z,3.90
2023-05-25T13:50:07.800Z,3.80
2023-05-25T13:51:41.329Z,3.77
2023-05-25T13:53:15.390Z,3.80
2023-05-25T13:54:48.200Z,3.60
2023-05-25T13:56:20.945Z,3.93
2023-05-25T13:57:53.707Z,4.10
2023-05-25T13:59:26.514Z,4.00
2023-05-25T14:00:59.314Z,3.90
2023-05-25T14:02:33.980Z,4.10
2023-05-25T14:04:06.909Z,4.10
2023-05-25T14:05:39.682Z,3.90
2023-05-25T14:07:13.072Z,3.60
2023-05-25T14:08:47.167Z,4.00
2023-05-25T14:10:20.127Z,3.77
2023-05-25T14:11:53.771Z,4.03
2023-05-25T14:13:26.613Z,4.10
2023-05-25T14:14:59.376Z,4.03
2023-05-25T14:16:32.196Z,3.87
2023-05-25T14:18:05.463Z,3.90
2023-05-25T14:19:38.252Z,4.00
2023-05-25T14:21:12.971Z,3.77
2023-05-25T14:22:45.711Z,3.93
2023-05-25T14:24:19.775Z,3.80
2023-05-25T14:25:52.588Z,3.47
2023-05-25T14:27:25.847Z,3.80
2023-05-25T14:28:58.579Z,3.80
2023-05-25T14:30:31.326Z,3.73
2023-05-25T14:32:04.363Z,3.97
2023-05-25T14:33:37.250Z,3.67
2023-05-25T14:35:09.821Z,3.80
2023-05-25T14:36:42.554Z,3.90
2023-05-25T14:38:15.279Z,3.67
2023-05-25T14:39:49.344Z,3.80
2023-05-25T14:41:22.617Z,3.90
2023-05-25T14:42:56.263Z,3.73
2023-05-25T14:44:29.114Z,3.63
2023-05-25T14:46:01.851Z,4.20
2023-05-25T14:47:34.625Z,3.80
2023-05-25T14:49:07.401Z,4.10
2023-05-25T14:50:41.675Z,3.73
2023-05-25T14:52:14.463Z,3.50
2023-05-25T14:53:47.201Z,3.80
2023-05-25T14:55:21.512Z,3.83
2023-05-25T14:56:54.305Z,3.67
2023-05-25T14:58:27.113Z,4.00
2023-05-25T14:59:59.865Z,3.90
2023-05-25T15:01:32.629Z,3.87
2023-05-25T15:03:05.868Z,4.20
2023-05-25T15:04:38.795Z,3.80
2023-05-25T15:06:11.544Z,3.47
2023-05-25T15:07:44.320Z,3.93
2023-05-25T15:09:19.142Z,3.73
2023-05-25T15:10:53.297Z,3.67
2023-05-25T15:12:26.080Z,4.00
2023-05-25T15:13:59.009Z,3.67
2023-05-25T15:15:31.877Z,3.70
2023-05-25T15:17:04.227Z,3.90
2023-05-25T15:18:36.975Z,3.67
2023-05-25T15:20:10.583Z,3.93
2023-05-25T15:21:43.382Z,4.03
2023-05-25T15:23:16.442Z,4.00
2023-05-25T15:24:49.182Z,4.20
2023-05-25T15:26:23.497Z,3.90
2023-05-25T15:27:56.248Z,3.90
2023-05-25T15:29:29.007Z,3.47
2023-05-25T15:31:03.094Z,4.20
2023-05-25T15:32:36.244Z,4.20
2023-05-25T15:34:11.032Z,4.10
2023-05-25T15:35:44.016Z,3.60
2023-05-25T15:37:16.849Z,3.67
2023-05-25T15:38:49.773Z,4.20
2023-05-25T15:40:22.528Z,4.10
2023-05-25T15:41:56.704Z,4.40
2023-05-25T15:43:29.484Z,3.73
2023-05-25T15:45:02.221Z,4.13
2023-05-25T15:46:35.556Z,3.80
2023-05-25T15:48:10.122Z,3.77
2023-05-25T15:49:42.927Z,4.37
2023-05-25T15:51:14.714Z,4.00
2023-05-25T15:52:47.763Z,4.07
2023-05-25T15:54:20.747Z,3.80
2023-05-25T15:55:53.497Z,4.20
2023-05-25T15:57:27.589Z,4.03
2023-05-25T15:59:00.529Z,3.80
2023-05-25T16:00:33.818Z,4.00
2023-05-25T16:02:06.805Z,4.10
2023-05-25T16:03:39.731Z,4.33
2023-05-25T16:05:12.522Z,4.30
2023-05-25T16:06:45.306Z,4.00
2023-05-25T16:08:18.046Z,4.13
2023-05-25T16:09:50.827Z,4.40
2023-05-25T16:11:23.850Z,4.00
2023-05-25T16:12:57.939Z,4.43
2023-05-25T16:14:30.715Z,4.30
2023-05-25T16:16:03.512Z,3.93
2023-05-25T16:17:36.268Z,4.47
2023-05-25T16:19:09.686Z,4.20
2023-05-25T16:20:44.199Z,4.03
2023-05-25T16:22:17.059Z,4.03
2023-05-25T16:23:49.885Z,4.33
2023-05-25T16:25:22.639Z,4.20
2023-05-25T16:26:57.468Z,4.10
2023-05-25T16:28:31.621Z,4.30
2023-05-25T16:30:04.921Z,4.20
2023-05-25T16:31:37.682Z,4.10
2023-05-25T16:33:09.535Z,4.30
2023-05-25T16:34:42.298Z,4.00
2023-05-25T16:36:15.097Z,4.20
2023-05-25T16:37:46.874Z,4.10
2023-05-25T16:39:19.666Z,4.10
2023-05-25T16:40:52.410Z,4.43
2023-05-25T16:42:26.243Z,3.83
2023-05-25T16:44:01.393Z,4.17
2023-05-25T16:45:34.147Z,4.70
2023-05-25T16:47:07.161Z,4.40
2023-05-25T16:48:39.893Z,4.13
2023-05-25T16:50:12.743Z,4.33
2023-05-25T16:51:45.490Z,4.20
2023-05-25T16:53:18.246Z,4.20
2023-05-25T16:54:51.002Z,4.27
2023-05-25T16:56:24.611Z,4.13
2023-05-25T16:57:57.371Z,4.17
2023-05-25T16:59:31.683Z,3.93
2023-05-25T17:01:04.500Z,4.17
2023-05-25T17:02:37.358Z,4.33
2023-05-25T17:04:10.383Z,4.53
2023-05-25T17:05:43.425Z,4.57
2023-05-25T17:07:16.368Z,4.10
2023-05-25T17:08:49.122Z,4.33
2023-05-25T17:10:21.850Z,4.70
2023-05-25T17:11:59.256Z,4.50
2023-05-25T17:13:32.056Z,3.93
2023-05-25T17:15:07.089Z,4.47
2023-05-25T17:16:39.950Z,4.20
2023-05-25T17:18:12.792Z,4.50
2023-05-25T17:19:46.043Z,4.50
2023-05-25T17:21:18.795Z,4.60
2023-05-25T17:22:52.884Z,4.70
2023-05-25T17:24:25.649Z,4.30
2023-05-25T17:25:58.473Z,4.80
2023-05-25T17:27:31.301Z,4.97
2023-05-25T17:29:06.039Z,4.53
2023-05-25T17:30:40.120Z,4.57
2023-05-25T17:32:12.913Z,4.57
2023-05-25T17:33:45.730Z,4.80
2023-05-25T17:35:18.590Z,4.30
2023-05-25T17:36:51.333Z,4.60
2023-05-25T17:38:24.076Z,4.70
2023-05-25T17:39:56.802Z,4.37
2023-05-25T17:41:30.674Z,4.33
2023-05-25T17:43:03.429Z,4.57
2023-05-25T17:44:39.961Z,5.00
2023-05-25T17:46:14.088Z,4.93
2023-05-25T17:47:46.968Z,5.10
2023-05-25T17:49:19.779Z,4.87
2023-05-25T17:50:52.553Z,4.67
2023-05-25T17:52:25.269Z,4.90
2023-05-25T17:53:58.043Z,4.80
2023-05-25T17:55:30.823Z,4.93
2023-05-25T17:57:03.853Z,4.80
2023-05-25T17:58:37.136Z,5.10
2023-05-25T18:00:11.666Z,5.40
2023-05-25T18:01:45.879Z,4.63
2023-05-25T18:03:18.769Z,4.73
2023-05-25T18:04:51.737Z,5.07
2023-05-25T18:06:24.993Z,5.50
2023-05-25T18:07:58.515Z,5.40
2023-05-25T18:09:31.257Z,5.37
2023-05-25T18:11:04.104Z,4.97
2023-05-25T18:12:36.862Z,5.50
2023-05-25T18:14:08.640Z,5.50
2023-05-25T18:15:41.542Z,5.53
2023-05-25T18:17:15.646Z,5.00
2023-05-25T18:18:48.383Z,5.10
2023-05-25T18:20:21.167Z,5.27
2023-05-25T18:21:53.979Z,5.27
2023-05-25T18:23:26.742Z,5.53
2023-05-25T18:25:00.121Z,5.57
2023-05-25T18:26:32.895Z,6.10
2023-05-25T18:28:05.700Z,5.40
2023-05-25T18:29:38.519Z,5.37
2023-05-25T18:31:11.308Z,5.03
2023-05-25T18:32:45.464Z,5.40
2023-05-25T18:34:18.223Z,5.90
2023-05-25T18:35:50.993Z,5.70
2023-05-25T18:37:23.747Z,5.47
2023-05-25T18:38:56.451Z,5.87
2023-05-25T18:40:29.175Z,5.57
2023-05-25T18:42:02.534Z,5.70
2023-05-25T18:43:35.291Z,5.77
2023-05-25T18:45:08.669Z,5.80
2023-05-25T18:46:43.660Z,5.43
2023-05-25T18:48:19.097Z,5.80
2023-05-25T18:49:51.973Z,6.30
2023-05-25T18:51:25.828Z,6.60
2023-05-25T18:52:59.396Z,6.07
2023-05-25T18:54:32.122Z,6.50
2023-05-25T18:56:04.997Z,6.83
2023-05-25T18:57:37.716Z,6.97
2023-05-25T18:59:10.636Z,7.07
2023-05-25T19:00:43.442Z,6.30
2023-05-25T19:02:16.304Z,5.73
2023-05-25T19:03:50.503Z,5.63
2023-05-25T19:05:24.244Z,5.40
2023-05-25T19:06:56.958Z,5.70
2023-05-25T19:08:29.705Z,5.60
2023-05-25T19:10:02.490Z,6.13
2023-05-25T19:11:35.218Z,5.00
2023-05-25T19:13:08.007Z,5.53
2023-05-25T19:14:40.760Z,5.67
2023-05-25T19:16:13.547Z,5.60
2023-05-25T19:17:46.668Z,5.87
2023-05-25T19:19:20.884Z,5.20
2023-05-25T19:20:53.621Z,5.37
2023-05-25T19:22:26.345Z,5.20
2023-05-25T19:23:59.104Z,5.53
2023-05-25T19:25:31.874Z,5.40
2023-05-25T19:27:05.465Z,5.37
2023-05-25T19:28:38.239Z,5.07
2023-05-25T19:30:11.556Z,5.20
2023-05-25T19:31:44.334Z,4.83
2023-05-25T19:33:17.090Z,5.07
2023-05-25T19:34:51.215Z,5.20
2023-05-25T19:36:24.151Z,5.00
2023-05-25T19:37:56.897Z,4.67
2023-05-25T19:39:31.545Z,4.93
2023-05-25T19:41:04.423Z,4.70
2023-05-25T19:42:37.305Z,4.77
2023-05-25T19:44:10.407Z,4.90
2023-05-25T19:45:43.429Z,5.00
2023-05-25T19:47:15.422Z,5.03
2023-05-25T19:48:48.157Z,4.80
2023-05-25T19:50:22.211Z,5.33
2023-05-25T19:51:54.956Z,5.00
2023-05-25T19:53:28.673Z,5.47
2023-05-25T19:55:01.430Z,5.30
2023-05-25T19:56:34.861Z,5.10
2023-05-25T19:58:07.712Z,5.07
2023-05-25T19:59:40.452Z,5.00
2023-05-25T20:01:13.211Z,4.80
2023-05-25T20:02:46.138Z,5.30
2023-05-25T20:04:18.972Z,5.27
2023-05-25T20:05:53.048Z,5.03
2023-05-25T20:07:25.799Z,5.10
2023-05-25T20:08:57.612Z,5.10
2023-05-25T20:10:30.644Z,5.33
2023-05-25T20:12:03.915Z,5.23
2023-05-25T20:13:36.639Z,5.30
2023-05-25T20:15:09.971Z,5.93
2023-05-25T20:16:42.717Z,5.07
2023-05-25T20:18:15.599Z,5.20
2023-05-25T20:19:48.399Z,5.23
2023-05-25T20:21:22.626Z,5.40
2023-05-25T20:22:55.347Z,5.67
2023-05-25T20:24:28.216Z,5.67
2023-05-25T20:26:00.987Z,5.33
2023-05-25T20:27:33.720Z,5.50
2023-05-25T20:29:06.478Z,5.50
2023-05-25T20:30:39.209Z,5.97
2023-05-25T20:32:12.116Z,5.57
2023-05-25T20:33:45.036Z,6.00
2023-05-25T20:35:18.193Z,5.90
2023-05-25T20:36:52.249Z,5.90
2023-05-25T20:38:24.992Z,5.67
2023-05-25T20:39:57.727Z,6.10
2023-05-25T20:41:30.557Z,5.87
2023-05-25T20:43:03.340Z,5.90
2023-05-25T20:44:36.290Z,5.83
2023-05-25T20:46:09.878Z,5.67
2023-05-25T20:47:42.865Z,5.97
2023-05-25T20:49:15.749Z,5.60
2023-05-25T20:50:48.549Z,5.87